createdAt,value
2022-10-26T00:00:26.402Z,4.20
2022-10-26T00:02:56.915Z,7.60
2022-10-26T00:05:24.373Z,5.90
2022-10-26T00:07:51.671Z,3.83
2022-10-26T00:10:21.852Z,4.57
2022-10-26T00:12:52.212Z,6.93
2022-10-26T00:15:20.019Z,6.72
2022-10-26T00:17:48.202Z,5.90
2022-10-26T00:20:15.905Z,8.68
2022-10-26T00:22:43.184Z,4.40
2022-10-26T00:25:10.557Z,5.30
2022-10-26T00:27:37.859Z,8.30
2022-10-26T00:30:06.048Z,7.90
2022-10-26T00:32:33.704Z,6.35
2022-10-26T00:35:10.522Z,5.50
2022-10-26T00:37:48.726Z,6.82
2022-10-26T00:40:16.315Z,6.47
2022-10-26T00:42:43.714Z,5.80
2022-10-26T00:45:26.075Z,3.15
2022-10-26T00:48:07.510Z,5.72
2022-10-26T00:50:36.987Z,6.57
2022-10-26T00:53:04.880Z,6.88
2022-10-26T00:55:34.691Z,6.30
2022-10-26T00:58:02.531Z,4.53
2022-10-26T01:00:29.926Z,7.13
2022-10-26T01:02:58.059Z,6.63
2022-10-26T01:05:25.425Z,4.88
2022-10-26T01:07:52.730Z,6.55
2022-10-26T01:10:20.624Z,9.38
2022-10-26T01:12:47.931Z,3.38
2022-10-26T01:15:15.292Z,5.20
2022-10-26T01:17:55.644Z,5.13
2022-10-26T01:20:44.385Z,3.30
2022-10-26T01:23:26.359Z,5.88
2022-10-26T01:26:21.894Z,3.92
2022-10-26T01:28:52.021Z,4.78
2022-10-26T01:31:23.706Z,8.55
2022-10-26T01:34:25.080Z,7.40
2022-10-26T01:36:55.042Z,7.70
2022-10-26T01:39:35.794Z,6.00
2022-10-26T01:42:03.093Z,6.72
2022-10-26T01:44:41.939Z,3.97
2022-10-26T01:47:11.254Z,2.70
2022-10-26T01:49:41.585Z,4.68
2022-10-26T01:52:09.865Z,6.47
2022-10-26T01:57:10.960Z,3.40
2022-10-26T01:59:50.424Z,3.95
2022-10-26T02:02:39.330Z,4.72
2022-10-26T02:05:50.556Z,5.82
2022-10-26T02:08:28.582Z,6.15
2022-10-26T02:11:12.749Z,5.47
2022-10-26T02:13:53.384Z,5.60
2022-10-26T02:16:20.720Z,4.60
2022-10-26T02:18:53.973Z,6.85
2022-10-26T02:21:24.057Z,5.13
2022-10-26T02:23:51.914Z,3.95
2022-10-26T02:26:21.507Z,5.57
2022-10-26T02:28:50.839Z,8.55
2022-10-26T02:31:18.144Z,4.60
2022-10-26T02:36:25.387Z,8.77
2022-10-26T02:38:53.033Z,5.10
2022-10-26T02:41:20.652Z,4.90
2022-10-26T02:43:52.461Z,4.20
2022-10-26T02:46:20.858Z,5.22
2022-10-26T02:48:48.131Z,7.20
2022-10-26T02:51:28.885Z,3.95
2022-10-26T02:54:11.182Z,5.63
2022-10-26T02:56:52.214Z,3.97
2022-10-26T02:59:20.491Z,3.90
2022-10-26T03:01:47.847Z,4.22
2022-10-26T03:04:15.179Z,6.07
2022-10-26T03:06:42.524Z,11.00
2022-10-26T03:09:09.841Z,3.88
2022-10-26T03:11:37.139Z,3.67
2022-10-26T03:14:04.459Z,3.85
2022-10-26T03:16:31.739Z,5.05
2022-10-26T03:18:59.025Z,4.18
2022-10-26T03:21:26.342Z,3.03
2022-10-26T03:23:53.627Z,6.20
2022-10-26T03:26:20.893Z,5.97
2022-10-26T03:28:48.239Z,5.18
2022-10-26T03:31:15.542Z,4.13
2022-10-26T03:33:42.876Z,4.05
2022-10-26T03:36:10.435Z,4.95
2022-10-26T03:38:37.769Z,5.57
2022-10-26T03:41:05.139Z,4.88
2022-10-26T03:43:32.402Z,5.72
2022-10-26T03:45:59.702Z,4.35
2022-10-26T03:48:26.964Z,3.90
2022-10-26T03:50:58.199Z,6.40
2022-10-26T03:53:26.328Z,3.65
2022-10-26T03:55:53.634Z,8.85
2022-10-26T03:58:20.971Z,5.03
2022-10-26T04:00:48.468Z,4.93
2022-10-26T04:03:15.893Z,2.92
2022-10-26T04:05:43.171Z,5.75
2022-10-26T04:08:10.541Z,5.70
2022-10-26T04:10:37.866Z,5.10
2022-10-26T04:13:05.164Z,6.78
2022-10-26T04:15:32.463Z,5.30
2022-10-26T04:18:00.950Z,8.00
2022-10-26T04:20:28.936Z,4.15
2022-10-26T04:23:00.463Z,4.30
2022-10-26T04:25:30.167Z,3.70
2022-10-26T04:28:03.847Z,5.22
2022-10-26T04:30:31.678Z,5.80
2022-10-26T04:32:59.069Z,3.70
2022-10-26T04:35:26.700Z,4.43
2022-10-26T04:38:04.358Z,3.72
2022-10-26T04:40:32.565Z,5.88
2022-10-26T04:43:00.043Z,4.68
2022-10-26T04:45:31.165Z,4.55
2022-10-26T04:48:08.606Z,3.40
2022-10-26T04:50:36.136Z,2.95
2022-10-26T04:53:05.026Z,4.10
2022-10-26T04:55:32.395Z,4.55
2022-10-26T04:58:01.343Z,4.53
2022-10-26T05:00:31.003Z,5.72
2022-10-26T05:03:01.975Z,6.97
2022-10-26T05:05:30.506Z,5.85
2022-10-26T05:07:57.969Z,6.88
2022-10-26T05:10:25.439Z,6.15
2022-10-26T05:12:53.685Z,9.55
2022-10-26T05:15:21.177Z,5.40
2022-10-26T05:17:54.390Z,4.75
2022-10-26T05:20:21.655Z,5.20
2022-10-26T05:22:55.469Z,5.78
2022-10-26T05:25:22.846Z,13.65
2022-10-26T05:27:50.163Z,5.43
2022-10-26T05:30:17.642Z,7.45
2022-10-26T05:32:44.954Z,7.32
2022-10-26T05:35:12.350Z,5.18
2022-10-26T05:37:39.695Z,5.38
2022-10-26T05:40:07.676Z,2.88
2022-10-26T05:42:34.924Z,4.90
2022-10-26T05:45:02.268Z,16.77
2022-10-26T05:47:29.539Z,5.95
2022-10-26T05:49:56.840Z,10.57
2022-10-26T05:52:24.138Z,3.83
2022-10-26T05:54:51.458Z,7.05
2022-10-26T05:57:19.036Z,6.47
2022-10-26T05:59:46.647Z,5.97
2022-10-26T06:02:26.379Z,9.05
2022-10-26T06:04:53.820Z,13.57
2022-10-26T06:07:21.371Z,9.13
2022-10-26T06:09:49.264Z,8.68
2022-10-26T06:12:19.410Z,5.50
2022-10-26T06:14:47.661Z,7.65
2022-10-26T06:17:33.815Z,11.32
2022-10-26T06:20:23.908Z,11.60
2022-10-26T06:23:29.148Z,7.95
2022-10-26T06:26:16.282Z,10.57
2022-10-26T06:28:52.916Z,8.70
2022-10-26T06:31:20.240Z,7.00
2022-10-26T06:33:47.543Z,7.38
2022-10-26T06:36:24.743Z,16.15
2022-10-26T06:39:02.722Z,9.88
2022-10-26T06:41:34.057Z,8.25
2022-10-26T06:44:02.686Z,12.02
2022-10-26T06:46:41.506Z,8.65
2022-10-26T06:49:27.658Z,6.50
2022-10-26T06:52:10.340Z,7.78
2022-10-26T06:54:50.331Z,12.30
2022-10-26T06:57:22.046Z,10.02
2022-10-26T07:00:18.943Z,15.98
2022-10-26T07:02:46.512Z,10.57
2022-10-26T07:05:14.223Z,11.68
2022-10-26T07:07:48.047Z,13.68
2022-10-26T07:10:15.823Z,14.10
2022-10-26T07:12:43.146Z,12.90
2022-10-26T07:15:10.880Z,16.17
2022-10-26T07:17:45.733Z,8.30
2022-10-26T07:20:13.595Z,8.45
2022-10-26T07:22:42.721Z,7.22
2022-10-26T07:25:10.246Z,9.75
2022-10-26T07:27:37.527Z,8.65
2022-10-26T07:30:05.580Z,8.32
2022-10-26T07:32:33.093Z,11.98
2022-10-26T07:35:00.472Z,6.97
2022-10-26T07:37:28.128Z,11.27
2022-10-26T07:39:55.567Z,9.35
2022-10-26T07:42:22.883Z,7.72
2022-10-26T07:44:50.213Z,13.07
2022-10-26T07:47:17.559Z,13.07
2022-10-26T07:49:44.882Z,10.43
2022-10-26T07:52:12.195Z,9.48
2022-10-26T07:54:39.576Z,7.53
2022-10-26T07:57:06.919Z,4.97
2022-10-26T07:59:34.288Z,5.68
2022-10-26T08:02:01.665Z,6.00
2022-10-26T08:04:29.032Z,5.88
2022-10-26T08:06:56.401Z,4.72
2022-10-26T08:09:23.731Z,5.13
2022-10-26T08:11:51.036Z,9.80
2022-10-26T08:14:18.367Z,7.05
2022-10-26T08:16:45.969Z,5.97
2022-10-26T08:19:13.290Z,6.20
2022-10-26T08:21:40.791Z,5.57
2022-10-26T08:24:08.839Z,3.58
2022-10-26T08:26:36.393Z,2.78
2022-10-26T08:29:03.715Z,4.63
2022-10-26T08:31:31.001Z,4.45
2022-10-26T08:33:58.315Z,5.45
2022-10-26T08:36:26.219Z,3.47
2022-10-26T08:38:53.601Z,5.13
2022-10-26T08:41:29.808Z,6.28
2022-10-26T08:43:58.967Z,8.25
2022-10-26T08:46:29.455Z,4.90
2022-10-26T08:49:01.133Z,3.58
2022-10-26T08:51:35.388Z,5.93
2022-10-26T08:54:02.748Z,6.63
2022-10-26T08:56:47.172Z,6.65
2022-10-26T08:59:45.916Z,7.55
2022-10-26T09:02:13.711Z,7.80
2022-10-26T09:04:41.042Z,6.43
2022-10-26T09:07:40.687Z,4.80
2022-10-26T09:10:38.520Z,4.35
2022-10-26T09:13:23.850Z,8.38
2022-10-26T09:16:02.459Z,6.90
2022-10-26T09:18:35.999Z,6.47
2022-10-26T09:21:15.179Z,3.58
2022-10-26T09:24:00.983Z,6.63
2022-10-26T09:26:28.353Z,12.20
2022-10-26T09:28:55.863Z,3.67
2022-10-26T09:31:23.224Z,7.10
2022-10-26T09:33:50.532Z,7.20
2022-10-26T09:36:22.138Z,4.93
2022-10-26T09:39:09.030Z,33.38
2022-10-26T09:42:05.093Z,6.03
2022-10-26T09:44:38.654Z,8.75
2022-10-26T09:47:06.027Z,8.43
2022-10-26T09:49:44.214Z,4.82
2022-10-26T09:54:43.741Z,5.10
2022-10-26T09:57:13.076Z,4.45
2022-10-26T09:59:40.451Z,7.57
2022-10-26T10:02:38.132Z,9.88
2022-10-26T10:05:45.803Z,4.82
2022-10-26T10:08:22.056Z,11.30
2022-10-26T10:11:09.767Z,8.38
2022-10-26T10:13:44.504Z,4.85
2022-10-26T10:16:14.016Z,7.07
2022-10-26T10:18:41.877Z,6.90
2022-10-26T10:21:09.518Z,3.72
2022-10-26T10:23:47.440Z,5.07
2022-10-26T10:26:14.894Z,4.63
2022-10-26T10:28:42.709Z,4.28
2022-10-26T10:31:21.481Z,8.02
2022-10-26T10:33:49.494Z,4.15
2022-10-26T10:36:18.785Z,3.78
2022-10-26T10:38:47.445Z,9.93
2022-10-26T10:41:21.513Z,5.53
2022-10-26T10:43:50.353Z,8.68
2022-10-26T10:46:19.417Z,4.57
2022-10-26T10:48:48.580Z,8.02
2022-10-26T10:51:19.744Z,10.45
2022-10-26T10:53:57.008Z,8.27
2022-10-26T10:56:49.555Z,7.63
2022-10-26T10:59:47.333Z,14.35
2022-10-26T11:02:34.786Z,13.25
2022-10-26T11:05:24.776Z,9.68
2022-10-26T11:08:00.567Z,8.85
2022-10-26T11:10:30.623Z,8.55
2022-10-26T11:13:00.004Z,8.93
2022-10-26T11:15:29.941Z,6.22
2022-10-26T11:18:22.836Z,8.32
2022-10-26T11:20:54.925Z,4.45
2022-10-26T11:23:22.385Z,6.32
2022-10-26T11:26:12.672Z,7.85
2022-10-26T11:28:49.188Z,11.98
2022-10-26T11:31:20.451Z,5.88
2022-10-26T11:34:28.748Z,7.68
2022-10-26T11:37:30.570Z,9.07
2022-10-26T11:40:05.873Z,9.60
2022-10-26T11:42:51.350Z,15.55
2022-10-26T11:45:41.768Z,9.27
2022-10-26T11:48:22.144Z,10.13
2022-10-26T11:50:52.428Z,11.80
2022-10-26T11:53:22.243Z,12.45
2022-10-26T11:55:52.130Z,9.48
2022-10-26T11:58:19.482Z,10.18
2022-10-26T12:00:56.117Z,16.08
2022-10-26T12:03:28.846Z,7.05
2022-10-26T12:05:56.625Z,10.05
2022-10-26T12:08:27.195Z,10.43
2022-10-26T12:11:14.044Z,11.50
2022-10-26T12:13:50.849Z,12.75
2022-10-26T12:17:22.247Z,10.18
2022-10-26T12:20:04.807Z,10.77
2022-10-26T12:22:52.355Z,11.20
2022-10-26T12:25:21.251Z,15.95
2022-10-26T12:27:49.952Z,9.43
2022-10-26T12:30:17.531Z,14.93
2022-10-26T12:32:44.874Z,12.65
2022-10-26T12:35:33.612Z,17.85
2022-10-26T12:38:21.621Z,14.13
2022-10-26T12:40:49.411Z,15.55
2022-10-26T12:43:16.820Z,8.02
2022-10-26T12:45:45.623Z,16.33
2022-10-26T12:48:45.562Z,10.98
2022-10-26T12:51:22.115Z,16.92
2022-10-26T12:54:11.735Z,11.23
2022-10-26T12:56:58.051Z,13.75
2022-10-26T12:59:49.213Z,15.63
2022-10-26T13:02:34.873Z,10.43
2022-10-26T13:05:14.348Z,9.25
2022-10-26T13:07:41.701Z,12.10
2022-10-26T13:10:12.057Z,15.07
2022-10-26T13:12:50.337Z,15.27
2022-10-26T13:15:24.043Z,12.20
2022-10-26T13:18:18.057Z,13.73
2022-10-26T13:21:09.275Z,12.27
2022-10-26T13:23:38.586Z,11.73
2022-10-26T13:26:06.022Z,11.20
2022-10-26T13:28:37.629Z,7.93
2022-10-26T13:31:21.796Z,9.23
2022-10-26T13:33:49.115Z,14.95
2022-10-26T13:37:00.673Z,11.15
2022-10-26T13:39:36.651Z,11.73
2022-10-26T13:42:04.150Z,15.52
2022-10-26T13:44:44.970Z,13.90
2022-10-26T13:47:24.556Z,10.05
2022-10-26T13:49:53.166Z,11.18
2022-10-26T13:52:25.220Z,7.95
2022-10-26T13:55:25.775Z,7.97
2022-10-26T13:58:05.414Z,11.50
2022-10-26T14:00:32.758Z,11.00
2022-10-26T14:03:00.158Z,15.30
2022-10-26T14:05:27.436Z,13.25
2022-10-26T14:07:57.454Z,12.02
2022-10-26T14:10:34.807Z,9.65
2022-10-26T14:13:02.171Z,9.55
2022-10-26T14:15:30.905Z,6.50
2022-10-26T14:17:58.947Z,14.15
2022-10-26T14:20:26.348Z,16.40
2022-10-26T14:22:53.704Z,10.48
2022-10-26T14:25:31.263Z,15.43
2022-10-26T14:28:24.022Z,12.52
2022-10-26T14:30:51.725Z,10.25
2022-10-26T14:33:26.049Z,10.80
2022-10-26T14:35:53.852Z,10.90
2022-10-26T14:38:29.294Z,9.13
2022-10-26T14:40:57.367Z,10.68
2022-10-26T14:43:25.306Z,7.25
2022-10-26T14:45:53.367Z,12.65
2022-10-26T14:48:33.730Z,13.93
2022-10-26T14:51:16.099Z,9.25
2022-10-26T14:53:49.072Z,16.50
2022-10-26T14:56:25.029Z,11.32
2022-10-26T14:58:52.968Z,8.93
2022-10-26T15:01:23.485Z,8.50
2022-10-26T15:04:21.545Z,8.98
2022-10-26T15:06:48.972Z,7.05
2022-10-26T15:09:31.779Z,5.53
2022-10-26T15:11:59.474Z,5.55
2022-10-26T15:14:26.816Z,8.88
2022-10-26T15:16:55.383Z,9.35
2022-10-26T15:19:24.007Z,12.95
2022-10-26T15:21:51.927Z,14.30
2022-10-26T15:24:38.984Z,11.05
2022-10-26T15:27:14.960Z,11.23
2022-10-26T15:29:44.477Z,13.00
2022-10-26T15:32:19.513Z,10.75
2022-10-26T15:35:06.975Z,14.90
2022-10-26T15:37:34.336Z,13.40
2022-10-26T15:40:01.748Z,10.90
2022-10-26T15:42:29.225Z,8.55
2022-10-26T15:44:56.719Z,12.63
2022-10-26T15:47:24.619Z,11.90
2022-10-26T15:49:51.962Z,10.25
2022-10-26T15:52:19.283Z,13.63
2022-10-26T15:54:46.711Z,8.85
2022-10-26T15:57:16.656Z,7.07
2022-10-26T15:59:46.852Z,8.75
2022-10-26T16:02:15.155Z,15.23
2022-10-26T16:04:42.780Z,13.15
2022-10-26T16:07:14.062Z,13.07
2022-10-26T16:09:42.188Z,9.93
2022-10-26T16:12:13.123Z,11.80
2022-10-26T16:15:04.220Z,14.60
2022-10-26T16:17:27.877Z,15.82
2022-10-26T16:19:55.264Z,9.90
2022-10-26T16:22:22.573Z,11.25
2022-10-26T16:24:49.839Z,9.77
2022-10-26T16:27:17.255Z,17.20
2022-10-26T16:29:44.546Z,8.95
2022-10-26T16:32:11.924Z,13.77
2022-10-26T16:34:39.703Z,16.40
2022-10-26T16:37:07.095Z,9.55
2022-10-26T16:39:34.753Z,13.23
2022-10-26T16:42:02.406Z,14.10
2022-10-26T16:44:29.783Z,11.27
2022-10-26T16:46:57.323Z,8.85
2022-10-26T16:49:24.692Z,11.85
2022-10-26T16:51:52.590Z,16.27
2022-10-26T16:54:19.945Z,11.02
2022-10-26T16:56:47.353Z,9.30
2022-10-26T16:59:14.689Z,9.07
2022-10-26T17:01:42.093Z,12.52
2022-10-26T17:04:09.700Z,9.38
2022-10-26T17:06:37.048Z,9.93
2022-10-26T17:09:04.419Z,11.82
2022-10-26T17:11:31.853Z,13.98
2022-10-26T17:13:59.237Z,14.45
2022-10-26T17:16:26.574Z,13.90
2022-10-26T17:18:54.088Z,13.75
2022-10-26T17:21:34.453Z,17.13
2022-10-26T17:24:02.293Z,15.13
2022-10-26T17:26:29.936Z,16.75
2022-10-26T17:28:57.528Z,16.90
2022-10-26T17:31:25.099Z,19.55
2022-10-26T17:33:52.439Z,15.60
2022-10-26T17:36:21.437Z,17.77
2022-10-26T17:38:50.087Z,16.70
2022-10-26T17:41:21.913Z,14.40
2022-10-26T17:43:49.688Z,13.25
2022-10-26T17:46:22.903Z,18.98
2022-10-26T17:48:57.063Z,15.15
2022-10-26T17:51:25.136Z,9.07
2022-10-26T17:53:52.985Z,13.57
2022-10-26T17:56:28.014Z,11.40
2022-10-26T17:59:00.031Z,15.00
2022-10-26T18:01:27.751Z,12.65
2022-10-26T18:03:55.528Z,15.63
2022-10-26T18:06:23.128Z,10.80
2022-10-26T18:08:50.734Z,14.23
2022-10-26T18:11:26.477Z,13.48
2022-10-26T18:13:55.249Z,12.73
2022-10-26T18:16:23.010Z,13.13
2022-10-26T18:18:57.404Z,17.98
2022-10-26T18:23:52.780Z,20.20
2022-10-26T18:26:21.531Z,14.68
2022-10-26T18:28:49.221Z,19.92
2022-10-26T18:31:20.735Z,17.23
2022-10-26T18:33:48.068Z,10.60
2022-10-26T18:36:17.204Z,16.23
2022-10-26T18:38:45.919Z,18.95
2022-10-26T18:41:14.101Z,12.55
2022-10-26T18:43:42.254Z,15.10
2022-10-26T18:46:20.805Z,15.35
2022-10-26T18:48:49.333Z,15.60
2022-10-26T18:51:18.243Z,16.65
2022-10-26T18:53:46.044Z,19.80
2022-10-26T18:56:20.096Z,19.75
2022-10-26T18:58:48.935Z,19.83
2022-10-26T19:01:17.229Z,21.60
2022-10-26T19:03:44.911Z,23.30
2022-10-26T19:06:13.407Z,20.70
2022-10-26T19:08:40.823Z,29.00
2022-10-26T19:11:10.040Z,19.33
2022-10-26T19:13:37.705Z,27.38
2022-10-26T19:16:17.230Z,25.80
2022-10-26T19:18:57.971Z,28.98
2022-10-26T19:21:25.524Z,24.45
2022-10-26T19:23:53.884Z,21.38
2022-10-26T19:26:22.965Z,24.85
2022-10-26T19:28:57.506Z,19.55
2022-10-26T19:31:27.275Z,30.13
2022-10-26T19:33:57.757Z,24.42
2022-10-26T19:36:25.191Z,25.33
2022-10-26T19:38:52.931Z,23.10
2022-10-26T19:41:22.435Z,28.38
2022-10-26T19:43:50.033Z,29.27
2022-10-26T19:46:19.075Z,25.08
2022-10-26T19:48:54.022Z,23.15
2022-10-26T19:51:21.405Z,30.50
2022-10-26T19:53:48.782Z,25.05
2022-10-26T19:56:16.165Z,23.50
2022-10-26T19:58:44.099Z,22.33
2022-10-26T20:01:12.258Z,27.10
2022-10-26T20:03:39.671Z,24.83
2022-10-26T20:06:12.828Z,23.83
2022-10-26T20:08:41.298Z,29.17
2022-10-26T20:11:11.554Z,25.08
2022-10-26T20:13:42.094Z,27.13
2022-10-26T20:16:09.491Z,37.65
2022-10-26T20:18:36.888Z,33.38
2022-10-26T20:21:08.719Z,37.88
2022-10-26T20:23:36.146Z,31.85
2022-10-26T20:26:03.551Z,29.17
2022-10-26T20:28:30.946Z,37.20
2022-10-26T20:30:59.459Z,32.60
2022-10-26T20:33:27.448Z,33.17
2022-10-26T20:35:58.977Z,33.55
2022-10-26T20:38:26.800Z,29.45
2022-10-26T20:40:58.357Z,43.47
2022-10-26T20:43:26.538Z,40.50
2022-10-26T20:45:54.292Z,28.23
2022-10-26T20:48:22.071Z,27.23
2022-10-26T20:54:03.017Z,22.17
2022-10-26T20:56:30.413Z,18.38
2022-10-26T20:58:58.384Z,19.75
2022-10-26T21:01:33.485Z,19.58
2022-10-26T21:04:02.079Z,23.70
2022-10-26T21:06:29.551Z,19.48
2022-10-26T21:08:57.157Z,18.33
2022-10-26T21:11:25.273Z,23.33
2022-10-26T21:13:53.756Z,22.17
2022-10-26T21:18:49.711Z,16.05
2022-10-26T21:21:17.014Z,18.92
2022-10-26T21:23:44.346Z,16.27
2022-10-26T21:26:11.651Z,20.92
2022-10-26T21:28:45.805Z,18.13
2022-10-26T21:31:14.918Z,24.08
2022-10-26T21:33:42.367Z,22.25
2022-10-26T21:36:12.278Z,26.45
2022-10-26T21:38:40.514Z,21.08
2022-10-26T21:41:12.671Z,16.05
2022-10-26T21:43:41.124Z,22.63
2022-10-26T21:46:08.765Z,18.15
2022-10-26T21:48:36.210Z,21.33
2022-10-26T21:51:04.764Z,14.80
2022-10-26T21:53:32.201Z,18.88
2022-10-26T21:56:03.864Z,24.85
2022-10-26T21:58:31.206Z,20.67
2022-10-26T22:01:11.482Z,20.58
2022-10-26T22:03:39.067Z,16.75
2022-10-26T22:06:07.178Z,14.43
2022-10-26T22:08:34.858Z,14.15
2022-10-26T22:11:22.186Z,13.55
2022-10-26T22:13:50.089Z,15.32
2022-10-26T22:16:20.909Z,16.42
2022-10-26T22:18:48.532Z,14.85
2022-10-26T22:21:16.541Z,12.45
2022-10-26T22:23:43.929Z,16.25
2022-10-26T22:26:21.820Z,20.77
2022-10-26T22:28:51.677Z,14.25
2022-10-26T22:31:20.740Z,21.23
2022-10-26T22:33:55.943Z,13.02
2022-10-26T22:36:23.474Z,13.15
2022-10-26T22:38:51.023Z,18.33
2022-10-26T22:41:18.865Z,18.33
2022-10-26T22:43:46.376Z,20.77
2022-10-26T22:46:18.464Z,15.02
2022-10-26T22:48:45.918Z,15.20
2022-10-26T22:51:15.567Z,14.52
2022-10-26T22:53:43.159Z,16.65
2022-10-26T22:56:11.152Z,19.38
2022-10-26T22:58:39.020Z,14.15
2022-10-26T23:01:14.532Z,20.23
2022-10-26T23:03:42.129Z,19.58
2022-10-26T23:06:11.230Z,15.80
2022-10-26T23:08:38.642Z,18.10
2022-10-26T23:11:07.462Z,16.90
2022-10-26T23:13:34.746Z,16.15
2022-10-26T23:16:06.359Z,13.98
2022-10-26T23:18:34.301Z,16.15
2022-10-26T23:21:01.815Z,13.18
2022-10-26T23:23:29.150Z,8.68
2022-10-26T23:26:07.070Z,12.18
2022-10-26T23:28:35.155Z,12.85
2022-10-26T23:31:02.631Z,14.35
2022-10-26T23:33:29.980Z,18.52
2022-10-26T23:35:57.526Z,13.75
2022-10-26T23:38:25.408Z,14.57
2022-10-26T23:40:54.224Z,13.43
2022-10-26T23:43:21.885Z,15.77
2022-10-26T23:45:49.319Z,15.30
2022-10-26T23:48:16.732Z,17.45
2022-10-26T23:50:44.615Z,17.25
2022-10-26T23:53:12.502Z,14.75
2022-10-26T23:55:39.871Z,16.15
2022-10-26T23:58:07.208Z,17.77
